createdAt,value
2022-08-24T00:03:15.287Z,17.60
2022-08-24T00:06:09.914Z,17.60
2022-08-24T00:08:58.802Z,17.70
2022-08-24T00:11:46.341Z,17.60
2022-08-24T00:14:33.750Z,17.50
2022-08-24T00:17:21.588Z,17.50
2022-08-24T00:20:12.505Z,17.60
2022-08-24T00:23:00.098Z,17.50
2022-08-24T00:25:48.043Z,17.50
2022-08-24T00:28:36.219Z,17.30
2022-08-24T00:31:23.702Z,17.10
2022-08-24T00:34:13.339Z,17.20
2022-08-24T00:37:02.105Z,17.20
2022-08-24T00:39:49.330Z,17.30
2022-08-24T00:42:36.639Z,17.40
2022-08-24T00:45:24.894Z,17.40
2022-08-24T00:48:16.504Z,17.40
2022-08-24T00:51:07.354Z,17.50
2022-08-24T00:54:06.455Z,17.50
2022-08-24T00:56:57.397Z,17.60
2022-08-24T00:59:50.165Z,17.60
2022-08-24T01:02:42.015Z,17.40
2022-08-24T01:05:29.019Z,17.20
2022-08-24T01:08:16.990Z,17.10
2022-08-24T01:11:09.410Z,17.20
2022-08-24T01:14:01.151Z,17.40
2022-08-24T01:17:05.667Z,17.50
2022-08-24T01:19:56.205Z,17.40
2022-08-24T01:22:57.898Z,17.40
2022-08-24T01:25:46.657Z,17.50
2022-08-24T01:28:33.881Z,17.60
2022-08-24T01:31:25.511Z,17.50
2022-08-24T01:34:13.180Z,17.30
2022-08-24T01:37:00.603Z,17.20
2022-08-24T01:39:50.880Z,17.10
2022-08-24T01:42:39.285Z,17.20
2022-08-24T01:45:26.517Z,17.00
2022-08-24T01:48:15.295Z,16.90
2022-08-24T01:51:11.067Z,16.80
2022-08-24T01:54:08.410Z,16.90
2022-08-24T01:56:55.926Z,16.90
2022-08-24T01:59:44.636Z,16.80
2022-08-24T02:02:32.518Z,16.80
2022-08-24T02:05:20.869Z,16.80
2022-08-24T02:08:08.170Z,16.70
2022-08-24T02:10:56.967Z,17.00
2022-08-24T02:13:45.244Z,17.10
2022-08-24T02:16:33.975Z,17.20
2022-08-24T02:19:21.297Z,17.20
2022-08-24T02:22:09.373Z,17.20
2022-08-24T02:24:58.430Z,17.40
2022-08-24T02:27:46.366Z,17.50
2022-08-24T02:30:33.742Z,17.60
2022-08-24T02:33:23.540Z,17.70
2022-08-24T02:36:26.335Z,17.80
2022-08-24T02:39:17.283Z,17.80
2022-08-24T02:42:07.143Z,17.80
2022-08-24T02:44:55.519Z,17.80
2022-08-24T02:47:42.930Z,17.80
2022-08-24T02:50:32.097Z,17.70
2022-08-24T02:53:22.277Z,17.80
2022-08-24T02:56:09.326Z,17.80
2022-08-24T02:58:57.649Z,17.80
2022-08-24T03:01:45.454Z,17.90
2022-08-24T03:04:33.549Z,17.90
2022-08-24T03:07:23.529Z,17.90
2022-08-24T03:10:11.757Z,17.90
2022-08-24T03:13:01.334Z,17.90
2022-08-24T03:15:48.596Z,17.90
2022-08-24T03:18:44.887Z,17.90
2022-08-24T03:21:34.136Z,17.90
2022-08-24T03:24:23.382Z,17.90
2022-08-24T03:27:11.799Z,17.70
2022-08-24T03:29:59.027Z,17.70
2022-08-24T03:32:47.225Z,17.80
2022-08-24T03:35:35.431Z,17.70
2022-08-24T03:38:23.325Z,17.80
2022-08-24T03:41:12.531Z,17.70
2022-08-24T03:43:59.538Z,17.60
2022-08-24T03:46:46.785Z,17.70
2022-08-24T03:49:34.106Z,17.70
2022-08-24T03:52:21.993Z,17.40
2022-08-24T03:55:11.161Z,17.50
2022-08-24T03:57:59.906Z,17.60
2022-08-24T04:00:48.203Z,17.40
2022-08-24T04:03:37.804Z,17.30
2022-08-24T04:06:25.305Z,17.30
2022-08-24T04:09:14.300Z,17.20
2022-08-24T04:12:04.791Z,17.30
2022-08-24T04:14:55.811Z,17.40
2022-08-24T04:17:44.250Z,17.40
2022-08-24T04:20:31.811Z,17.40
2022-08-24T04:23:19.607Z,17.40
2022-08-24T04:26:07.103Z,17.50
2022-08-24T04:28:55.374Z,17.30
2022-08-24T04:31:45.332Z,17.50
2022-08-24T04:34:40.043Z,17.50
2022-08-24T04:37:29.136Z,17.50
2022-08-24T04:40:26.486Z,17.50
2022-08-24T04:43:19.466Z,17.30
2022-08-24T04:46:08.497Z,17.20
2022-08-24T04:48:57.972Z,17.20
2022-08-24T04:51:45.057Z,17.40
2022-08-24T04:54:41.337Z,17.40
2022-08-24T04:57:36.829Z,17.50
2022-08-24T05:00:24.558Z,17.70
2022-08-24T05:03:12.059Z,17.80
2022-08-24T05:06:01.838Z,17.80
2022-08-24T05:08:49.803Z,17.90
2022-08-24T05:11:40.293Z,18.00
2022-08-24T05:14:29.256Z,18.10
2022-08-24T05:17:16.675Z,18.20
2022-08-24T05:20:05.346Z,18.20
2022-08-24T05:22:56.339Z,18.30
2022-08-24T05:25:44.555Z,18.40
2022-08-24T05:28:31.947Z,18.40
2022-08-24T05:31:22.015Z,18.40
2022-08-24T05:34:09.686Z,18.40
2022-08-24T05:36:56.618Z,18.50
2022-08-24T05:40:07.651Z,18.60
2022-08-24T05:42:57.118Z,18.70
2022-08-24T05:45:44.640Z,18.80
2022-08-24T05:48:33.075Z,18.90
2022-08-24T05:51:20.379Z,19.00
2022-08-24T05:54:15.821Z,19.00
2022-08-24T05:57:18.081Z,19.20
2022-08-24T06:00:25.619Z,19.50
2022-08-24T06:03:14.761Z,19.60
2022-08-24T06:06:08.610Z,19.70
2022-08-24T06:08:59.412Z,19.70
2022-08-24T06:11:47.514Z,19.80
2022-08-24T06:14:37.831Z,19.70
2022-08-24T06:17:26.283Z,19.80
2022-08-24T06:20:13.678Z,19.90
2022-08-24T06:23:00.891Z,19.90
2022-08-24T06:26:15.840Z,20.00
2022-08-24T06:29:04.870Z,20.00
2022-08-24T06:31:56.101Z,20.00
2022-08-24T06:35:11.583Z,20.00
2022-08-24T06:37:59.496Z,20.10
2022-08-24T06:40:47.183Z,20.00
2022-08-24T06:43:34.694Z,20.10
2022-08-24T06:46:32.859Z,20.10
2022-08-24T06:49:21.920Z,20.10
2022-08-24T06:52:10.099Z,20.10
2022-08-24T06:54:58.195Z,20.10
2022-08-24T06:57:49.203Z,20.20
2022-08-24T07:00:39.712Z,20.30
2022-08-24T07:03:27.381Z,20.30
2022-08-24T07:06:25.184Z,20.40
2022-08-24T07:09:16.068Z,20.30
2022-08-24T07:12:03.201Z,20.40
2022-08-24T07:14:50.435Z,20.40
2022-08-24T07:17:38.469Z,20.30
2022-08-24T07:20:26.359Z,20.40
2022-08-24T07:23:42.118Z,20.40
2022-08-24T07:26:32.201Z,20.40
2022-08-24T07:32:31.734Z,20.60
2022-08-24T07:35:18.925Z,20.70
2022-08-24T07:38:08.255Z,20.70
2022-08-24T07:41:14.730Z,20.90
2022-08-24T07:44:04.733Z,21.20
2022-08-24T07:46:52.482Z,21.30
2022-08-24T07:49:41.864Z,21.20
2022-08-24T07:52:29.551Z,21.10
2022-08-24T07:55:16.975Z,21.10
2022-08-24T07:58:06.006Z,20.90
2022-08-24T08:00:54.043Z,21.00
2022-08-24T08:03:41.553Z,21.30
2022-08-24T08:06:28.928Z,21.20
2022-08-24T08:09:21.134Z,21.30
2022-08-24T08:12:09.541Z,21.50
2022-08-24T08:15:02.614Z,21.40
2022-08-24T08:17:54.081Z,21.60
2022-08-24T08:20:43.848Z,21.80
2022-08-24T08:23:49.655Z,21.90
2022-08-24T08:26:51.532Z,22.00
2022-08-24T08:29:47.218Z,22.10
2022-08-24T08:32:36.360Z,22.10
2022-08-24T08:35:24.314Z,22.20
2022-08-24T08:43:32.343Z,22.20
2022-08-24T08:46:40.838Z,22.30
2022-08-24T08:50:05.279Z,22.10
2022-08-24T08:53:51.651Z,22.20
2022-08-24T08:56:47.222Z,22.70
2022-08-24T08:59:48.638Z,22.60
2022-08-24T09:03:11.498Z,22.40
2022-08-24T09:06:32.730Z,22.20
2022-08-24T09:10:03.431Z,22.70
2022-08-24T09:13:07.384Z,22.90
2022-08-24T09:16:10.664Z,22.90
2022-08-24T09:19:31.666Z,22.70
2022-08-24T09:22:22.981Z,22.70
2022-08-24T09:25:26.528Z,23.10
2022-08-24T09:28:43.721Z,23.10
2022-08-24T09:31:44.882Z,23.00
2022-08-24T09:34:37.951Z,23.10
2022-08-24T09:37:34.795Z,23.20
2022-08-24T09:40:37.662Z,23.30
2022-08-24T09:43:51.106Z,23.30
2022-08-24T09:47:13.551Z,23.50
2022-08-24T09:50:27.030Z,23.50
2022-08-24T09:54:14.954Z,23.60
2022-08-24T09:57:44.234Z,23.40
2022-08-24T10:00:40.974Z,23.60
2022-08-24T10:03:44.702Z,23.60
2022-08-24T10:06:42.177Z,23.60
2022-08-24T10:09:51.485Z,23.70
2022-08-24T10:12:57.677Z,24.00
2022-08-24T10:15:53.714Z,23.90
2022-08-24T10:18:53.483Z,23.30
2022-08-24T10:21:53.249Z,23.10
2022-08-24T10:25:01.345Z,23.00
2022-08-24T10:27:58.717Z,23.30
2022-08-24T10:31:02.137Z,24.00
2022-08-24T10:34:07.592Z,24.00
2022-08-24T10:37:30.150Z,23.90
2022-08-24T10:40:34.718Z,24.00
2022-08-24T10:43:46.301Z,23.30
2022-08-24T10:46:45.449Z,23.10
2022-08-24T10:50:16.824Z,23.30
2022-08-24T10:53:27.364Z,23.80
2022-08-24T10:56:17.090Z,24.20
2022-08-24T10:59:18.941Z,24.40
2022-08-24T11:02:12.990Z,24.70
2022-08-24T11:05:01.834Z,25.00
2022-08-24T11:08:01.929Z,25.10
2022-08-24T11:11:07.080Z,25.20
2022-08-24T11:14:00.465Z,24.80
2022-08-24T11:16:52.562Z,24.00
2022-08-24T11:19:42.677Z,24.30
2022-08-24T11:22:40.625Z,24.40
2022-08-24T11:25:32.090Z,24.30
2022-08-24T11:28:26.262Z,24.40
2022-08-24T11:31:15.511Z,24.40
2022-08-24T11:34:08.001Z,24.50
2022-08-24T11:42:19.485Z,24.50
2022-08-24T11:45:20.409Z,24.50
2022-08-24T11:48:23.776Z,24.70
2022-08-24T11:51:28.847Z,25.10
2022-08-24T11:54:25.960Z,25.00
2022-08-24T11:57:18.378Z,24.70
2022-08-24T12:00:09.776Z,24.50
2022-08-24T12:03:06.395Z,24.30
2022-08-24T12:06:02.039Z,24.40
2022-08-24T12:08:56.329Z,24.40
2022-08-24T12:11:49.982Z,24.50
2022-08-24T12:14:42.781Z,24.80
2022-08-24T12:17:36.297Z,25.00
2022-08-24T12:20:31.821Z,25.30
2022-08-24T12:23:25.696Z,25.40
2022-08-24T12:26:29.291Z,25.50
2022-08-24T12:29:23.590Z,25.70
2022-08-24T12:32:16.016Z,25.70
2022-08-24T12:35:06.963Z,25.90
2022-08-24T12:38:00.222Z,25.60
2022-08-24T12:40:54.343Z,25.60
2022-08-24T12:43:47.089Z,25.40
2022-08-24T12:46:35.047Z,25.60
2022-08-24T12:49:29.266Z,25.80
2022-08-24T12:52:46.903Z,25.70
2022-08-24T12:56:17.363Z,25.50
2022-08-24T12:59:14.375Z,25.50
2022-08-24T13:02:04.502Z,25.60
2022-08-24T13:05:00.355Z,25.80
2022-08-24T13:07:50.618Z,25.90
2022-08-24T13:10:44.852Z,26.00
2022-08-24T13:13:46.806Z,26.20
2022-08-24T13:17:09.565Z,26.30
2022-08-24T13:20:20.566Z,26.20
2022-08-24T13:23:16.405Z,26.10
2022-08-24T13:26:23.949Z,26.10
2022-08-24T13:29:15.515Z,25.90
2022-08-24T13:32:06.574Z,25.70
2022-08-24T13:34:58.597Z,25.90
2022-08-24T13:38:21.659Z,26.10
2022-08-24T13:41:21.023Z,26.30
2022-08-24T13:44:16.995Z,26.30
2022-08-24T13:47:13.474Z,26.30
2022-08-24T13:50:10.900Z,26.40
2022-08-24T13:53:14.454Z,26.60
2022-08-24T13:56:32.387Z,26.40
2022-08-24T13:59:34.576Z,26.50
2022-08-24T14:02:33.217Z,26.40
2022-08-24T14:05:33.468Z,26.40
2022-08-24T14:08:36.120Z,26.50
2022-08-24T14:11:38.889Z,26.40
2022-08-24T14:15:06.486Z,26.50
2022-08-24T14:18:07.817Z,26.50
2022-08-24T14:21:09.637Z,26.30
2022-08-24T14:24:04.642Z,26.30
2022-08-24T14:27:02.436Z,26.50
2022-08-24T14:29:50.367Z,26.40
2022-08-24T14:32:47.618Z,26.40
2022-08-24T14:35:44.022Z,26.40
2022-08-24T14:38:48.266Z,26.40
2022-08-24T14:41:50.356Z,26.40
2022-08-24T14:44:56.319Z,26.50
2022-08-24T14:47:59.893Z,26.20
2022-08-24T14:50:55.966Z,26.10
2022-08-24T14:54:01.896Z,26.30
2022-08-24T14:57:00.663Z,26.20
2022-08-24T14:59:58.497Z,26.20
2022-08-24T15:03:12.449Z,26.40
2022-08-24T15:06:26.311Z,26.40
2022-08-24T15:09:22.090Z,26.40
2022-08-24T15:12:21.119Z,26.40
2022-08-24T15:15:18.949Z,26.40
2022-08-24T15:18:13.379Z,26.30
2022-08-24T15:21:12.636Z,26.40
2022-08-24T15:24:30.338Z,26.30
2022-08-24T15:27:26.043Z,26.40
2022-08-24T15:30:23.234Z,26.40
2022-08-24T15:33:18.435Z,26.40
2022-08-24T15:36:11.409Z,26.50
2022-08-24T15:43:24.446Z,26.70
2022-08-24T15:46:13.001Z,26.60
2022-08-24T15:49:06.076Z,26.50
2022-08-24T15:51:57.405Z,26.40
2022-08-24T15:54:57.005Z,26.50
2022-08-24T15:57:46.310Z,26.60
2022-08-24T16:00:54.699Z,26.60
2022-08-24T16:03:51.021Z,26.60
2022-08-24T16:06:42.199Z,26.60
2022-08-24T16:09:38.644Z,26.40
2022-08-24T16:12:32.393Z,26.40
2022-08-24T16:15:21.095Z,26.30
2022-08-24T16:18:08.237Z,26.40
2022-08-24T16:20:57.648Z,26.30
2022-08-24T16:23:47.620Z,26.30
2022-08-24T16:26:54.925Z,26.20
2022-08-24T16:29:50.366Z,26.30
2022-08-24T16:32:53.827Z,26.20
2022-08-24T16:35:41.704Z,26.20
2022-08-24T16:38:30.254Z,26.10
2022-08-24T16:41:20.030Z,26.20
2022-08-24T16:44:09.069Z,26.30
2022-08-24T16:46:56.257Z,26.30
2022-08-24T16:49:44.619Z,26.30
2022-08-24T16:52:31.763Z,26.30
2022-08-24T16:55:19.325Z,26.20
2022-08-24T16:58:06.727Z,26.20
2022-08-24T17:00:55.718Z,26.10
2022-08-24T17:03:42.946Z,26.10
2022-08-24T17:06:31.037Z,26.10
2022-08-24T17:09:18.955Z,26.00
2022-08-24T17:12:06.819Z,26.00
2022-08-24T17:14:54.845Z,25.90
2022-08-24T17:17:54.304Z,25.90
2022-08-24T17:20:42.576Z,25.90
2022-08-24T17:23:29.747Z,25.80
2022-08-24T17:26:20.773Z,25.80
2022-08-24T17:29:10.676Z,25.80
2022-08-24T17:32:56.142Z,25.70
2022-08-24T17:35:45.133Z,25.60
2022-08-24T17:38:50.342Z,25.50
2022-08-24T17:41:40.387Z,25.50
2022-08-24T17:44:29.635Z,25.50
2022-08-24T17:47:17.439Z,25.50
2022-08-24T17:50:06.524Z,25.40
2022-08-24T17:52:59.019Z,25.40
2022-08-24T17:55:48.214Z,25.30
2022-08-24T17:58:56.346Z,25.30
2022-08-24T18:01:44.506Z,25.20
2022-08-24T18:04:33.647Z,25.20
2022-08-24T18:07:42.199Z,25.10
2022-08-24T18:10:33.171Z,25.10
2022-08-24T18:13:23.129Z,25.00
2022-08-24T18:16:15.549Z,24.90
2022-08-24T18:19:03.126Z,24.90
2022-08-24T18:21:50.495Z,24.80
2022-08-24T18:24:37.937Z,24.70
2022-08-24T18:27:30.170Z,24.60
2022-08-24T18:30:21.043Z,24.60
2022-08-24T18:33:11.944Z,24.50
2022-08-24T18:35:59.493Z,24.40
2022-08-24T18:38:47.083Z,24.30
2022-08-24T18:41:37.149Z,24.30
2022-08-24T18:44:29.644Z,24.30
2022-08-24T18:47:19.177Z,24.20
2022-08-24T18:50:07.331Z,24.10
2022-08-24T18:52:54.696Z,24.00
2022-08-24T18:55:44.124Z,24.00
2022-08-24T18:58:31.433Z,23.90
2022-08-24T19:01:20.535Z,23.80
2022-08-24T19:04:13.520Z,23.80
2022-08-24T19:07:01.666Z,23.80
2022-08-24T19:09:48.921Z,23.70
2022-08-24T19:12:40.355Z,23.70
2022-08-24T19:15:39.634Z,23.70
2022-08-24T19:18:28.711Z,23.60
2022-08-24T19:21:16.159Z,23.50
2022-08-24T19:24:06.857Z,23.60
2022-08-24T19:26:54.511Z,23.50
2022-08-24T19:29:55.460Z,23.50
2022-08-24T19:32:44.301Z,23.40
2022-08-24T19:35:35.064Z,23.40
2022-08-24T19:38:25.759Z,23.40
2022-08-24T19:41:14.237Z,23.30
2022-08-24T19:44:23.552Z,23.30
2022-08-24T19:47:16.474Z,23.20
2022-08-24T19:50:05.512Z,23.20
2022-08-24T19:52:54.139Z,23.20
2022-08-24T19:55:41.489Z,23.10
2022-08-24T19:58:31.882Z,23.00
2022-08-24T20:01:21.289Z,23.00
2022-08-24T20:04:08.829Z,23.00
2022-08-24T20:06:56.209Z,22.90
2022-08-24T20:09:44.673Z,22.90
2022-08-24T20:12:32.081Z,22.80
2022-08-24T20:15:19.252Z,22.80
2022-08-24T20:18:06.614Z,22.70
2022-08-24T20:20:53.767Z,22.70
2022-08-24T20:23:41.207Z,22.60
2022-08-24T20:26:32.752Z,22.60
2022-08-24T20:29:20.867Z,22.60
2022-08-24T20:32:08.195Z,22.60
2022-08-24T20:34:56.782Z,22.50
2022-08-24T20:37:43.821Z,22.50
2022-08-24T20:40:31.203Z,22.50
2022-08-24T20:43:20.620Z,22.50
2022-08-24T20:46:08.052Z,22.40
2022-08-24T20:48:56.554Z,22.40
2022-08-24T20:51:43.574Z,22.40
2022-08-24T20:54:31.231Z,22.30
2022-08-24T20:57:21.428Z,22.20
2022-08-24T21:00:12.135Z,22.20
2022-08-24T21:02:59.408Z,22.20
2022-08-24T21:05:47.246Z,22.20
2022-08-24T21:08:34.933Z,22.10
2022-08-24T21:11:22.411Z,22.10
2022-08-24T21:14:09.361Z,22.10
2022-08-24T21:16:58.954Z,21.90
2022-08-24T21:19:46.398Z,21.90
2022-08-24T21:22:36.202Z,21.90
2022-08-24T21:25:23.311Z,21.90
2022-08-24T21:28:10.550Z,21.80
2022-08-24T21:31:05.812Z,21.70
2022-08-24T21:34:12.538Z,21.70
2022-08-24T21:36:59.622Z,21.60
2022-08-24T21:39:48.840Z,21.60
2022-08-24T21:42:36.723Z,21.60
2022-08-24T21:45:24.202Z,21.60
2022-08-24T21:48:12.581Z,21.60
2022-08-24T21:51:01.347Z,21.60
2022-08-24T21:53:48.488Z,21.60
2022-08-24T21:56:43.465Z,21.60
2022-08-24T21:59:31.364Z,21.50
2022-08-24T22:02:20.655Z,21.50
2022-08-24T22:05:08.993Z,21.40
2022-08-24T22:07:58.493Z,21.40
2022-08-24T22:10:46.357Z,21.40
2022-08-24T22:13:34.229Z,21.40
2022-08-24T22:16:22.050Z,21.30
2022-08-24T22:19:09.069Z,21.20
2022-08-24T22:26:48.729Z,21.20
2022-08-24T22:29:35.872Z,21.20
2022-08-24T22:37:33.951Z,21.10
2022-08-24T22:40:21.151Z,21.10
2022-08-24T22:43:09.551Z,21.10
2022-08-24T22:45:56.924Z,21.00
2022-08-24T22:48:44.443Z,21.00
2022-08-24T22:51:32.064Z,20.90
2022-08-24T22:54:20.002Z,20.90
2022-08-24T22:57:08.460Z,20.90
2022-08-24T22:59:57.303Z,20.90
2022-08-24T23:02:44.589Z,20.90
2022-08-24T23:05:31.679Z,20.90
2022-08-24T23:08:18.991Z,20.80
2022-08-24T23:11:06.809Z,20.70
2022-08-24T23:13:56.245Z,20.60
2022-08-24T23:16:47.719Z,20.60
2022-08-24T23:19:52.533Z,20.60
2022-08-24T23:22:41.477Z,20.60
2022-08-24T23:25:28.826Z,20.60
2022-08-24T23:28:17.253Z,20.60
2022-08-24T23:31:06.767Z,20.60
2022-08-24T23:33:55.353Z,20.50
2022-08-24T23:36:44.259Z,20.50
2022-08-24T23:39:32.042Z,20.60
2022-08-24T23:42:19.145Z,20.50
2022-08-24T23:45:09.339Z,20.50
2022-08-24T23:47:59.245Z,20.40
2022-08-24T23:50:48.035Z,20.40
2022-08-24T23:53:35.819Z,20.40
2022-08-24T23:56:26.213Z,20.40
2022-08-24T23:59:38.932Z,20.40
